createdAt,value
2018-03-14T00:04:14.440Z,99020
2018-03-14T00:09:11.736Z,99020
2018-03-14T00:14:08.968Z,99018
2018-03-14T00:19:06.437Z,99008
2018-03-14T00:24:03.647Z,99010
2018-03-14T00:29:06.254Z,99013
2018-03-14T00:34:03.336Z,99009
2018-03-14T00:39:04.137Z,99010
2018-03-14T00:44:01.275Z,99008
2018-03-14T00:49:04.590Z,99013
2018-03-14T00:54:01.761Z,99002
2018-03-14T00:59:06.430Z,99012
2018-03-14T01:04:03.644Z,99002
2018-03-14T01:09:05.000Z,98994
2018-03-14T01:14:02.209Z,98990
2018-03-14T01:19:02.805Z,98993
2018-03-14T01:23:59.929Z,98988
2018-03-14T01:29:00.241Z,98986
2018-03-14T01:33:58.073Z,98986
2018-03-14T01:38:59.210Z,98987
2018-03-14T01:43:56.964Z,98991
2018-03-14T01:48:58.013Z,98985
2018-03-14T01:53:55.277Z,98980
2018-03-14T01:58:56.261Z,98979
2018-03-14T02:03:53.477Z,98987
2018-03-14T02:08:50.801Z,98984
2018-03-14T02:13:47.932Z,98986
2018-03-14T02:18:48.273Z,98976
2018-03-14T02:23:45.461Z,98979
2018-03-14T02:28:43.844Z,98976
2018-03-14T02:33:41.069Z,98972
2018-03-14T02:38:43.865Z,98989
2018-03-14T02:43:41.070Z,98975
2018-03-14T02:48:39.558Z,98975
2018-03-14T02:53:36.865Z,98981
2018-03-14T02:58:37.766Z,98970
2018-03-14T03:03:35.025Z,98968
2018-03-14T03:08:32.552Z,98977
2018-03-14T03:13:29.742Z,98984
2018-03-14T03:18:28.009Z,98980
2018-03-14T03:23:25.288Z,98990
2018-03-14T03:28:23.736Z,98990
2018-03-14T03:33:21.105Z,98988
2018-03-14T03:38:19.844Z,99001
2018-03-14T03:43:17.120Z,98993
2018-03-14T03:48:15.436Z,99008
2018-03-14T03:53:12.730Z,99012
2018-03-14T03:58:11.681Z,99012
2018-03-14T04:03:08.853Z,99036
2018-03-14T04:08:09.616Z,99033
2018-03-14T04:13:06.908Z,99040
2018-03-14T04:18:05.145Z,99041
2018-03-14T04:23:02.496Z,99050
2018-03-14T04:28:00.757Z,99044
2018-03-14T04:32:58.676Z,99035
2018-03-14T04:37:59.117Z,99033
2018-03-14T04:42:56.334Z,99036
2018-03-14T04:47:54.621Z,99043
2018-03-14T04:52:52.219Z,99057
2018-03-14T04:57:50.499Z,99060
2018-03-14T05:02:47.741Z,99061
2018-03-14T05:07:49.543Z,99080
2018-03-14T05:12:46.754Z,99071
2018-03-14T05:17:45.113Z,99084
2018-03-14T05:22:42.425Z,99070
2018-03-14T05:27:40.780Z,99084
2018-03-14T05:32:38.018Z,99082
2018-03-14T05:37:39.903Z,99087
2018-03-14T05:42:37.219Z,99086
2018-03-14T05:47:40.098Z,99081
2018-03-14T05:52:37.291Z,99085
2018-03-14T05:57:34.654Z,99085
2018-03-14T06:02:31.902Z,99097
2018-03-14T06:07:30.317Z,99099
2018-03-14T06:12:27.339Z,99105
2018-03-14T06:17:29.829Z,99105
2018-03-14T06:22:27.883Z,99109
2018-03-14T06:27:26.398Z,99104
2018-03-14T06:32:23.635Z,99115
2018-03-14T06:37:24.712Z,99122
2018-03-14T06:42:24.140Z,99125
2018-03-14T06:47:21.464Z,99137
2018-03-14T06:52:19.302Z,99140
2018-03-14T06:57:16.925Z,99140
2018-03-14T07:02:32.053Z,99133
2018-03-14T07:07:30.493Z,99127
2018-03-14T07:12:27.827Z,99135
2018-03-14T07:17:26.151Z,99128
2018-03-14T07:22:23.281Z,99133
2018-03-14T07:27:21.686Z,99143
2018-03-14T07:32:18.954Z,99140
2018-03-14T07:37:19.786Z,99153
2018-03-14T07:42:16.989Z,99152
2018-03-14T07:47:17.490Z,99158
2018-03-14T07:52:14.802Z,99158
2018-03-14T07:57:12.138Z,99165
2018-03-14T08:02:09.521Z,99168
2018-03-14T08:07:08.099Z,99143
2018-03-14T08:21:18.925Z,99167
2018-03-14T08:26:21.397Z,99177
2018-03-14T08:31:18.720Z,99167
2018-03-14T08:36:16.122Z,99186
2018-03-14T08:41:13.986Z,99172
2018-03-14T08:46:16.610Z,99171
2018-03-14T08:51:14.965Z,99175
2018-03-14T08:56:13.355Z,99167
2018-03-14T09:01:10.592Z,99167
2018-03-14T09:06:11.378Z,99162
2018-03-14T09:11:08.471Z,99176
2018-03-14T09:16:08.849Z,99177
2018-03-14T09:21:06.005Z,99183
2018-03-14T09:26:11.049Z,99156
2018-03-14T09:31:08.349Z,99149
2018-03-14T09:36:09.640Z,99183
2018-03-14T09:41:06.899Z,99192
2018-03-14T09:46:04.163Z,99185
2018-03-14T09:51:01.306Z,99176
2018-03-14T09:56:00.304Z,99176
2018-03-14T10:00:57.426Z,99164
2018-03-14T10:05:58.701Z,99169
2018-03-14T10:10:55.928Z,99182
2018-03-14T10:15:56.964Z,99168
2018-03-14T10:20:54.205Z,99141
2018-03-14T10:25:58.440Z,99185
2018-03-14T10:30:55.589Z,99171
2018-03-14T10:35:56.650Z,99175
2018-03-14T10:40:53.876Z,99164
2018-03-14T10:46:03.686Z,99172
2018-03-14T10:51:01.306Z,99144
2018-03-14T10:56:02.533Z,99147
2018-03-14T11:01:05.813Z,99153
2018-03-14T11:06:09.830Z,99119
2018-03-14T11:11:07.618Z,99119
2018-03-14T11:16:08.561Z,99143
2018-03-14T11:21:05.726Z,99108
2018-03-14T11:26:09.358Z,99148
2018-03-14T11:31:06.461Z,99154
2018-03-14T11:36:06.807Z,99145
2018-03-14T11:41:04.056Z,99142
2018-03-14T11:46:07.861Z,99140
2018-03-14T11:51:05.182Z,99132
2018-03-14T11:56:03.854Z,99162
2018-03-14T12:01:01.036Z,99092
2018-03-14T12:06:02.197Z,99103
2018-03-14T12:11:00.119Z,99099
2018-03-14T12:15:57.273Z,99167
2018-03-14T12:20:54.588Z,99116
2018-03-14T12:25:55.801Z,99108
2018-03-14T12:30:53.811Z,99116
2018-03-14T12:35:52.133Z,99136
2018-03-14T12:40:49.378Z,99162
2018-03-14T12:45:51.022Z,99155
2018-03-14T12:50:48.322Z,99155
2018-03-14T12:55:50.570Z,99140
2018-03-14T13:00:48.450Z,99145
2018-03-14T13:05:48.945Z,99147
2018-03-14T13:10:46.244Z,99145
2018-03-14T13:15:44.449Z,99160
2018-03-14T13:20:41.702Z,99166
2018-03-14T13:25:42.076Z,99169
2018-03-14T13:30:39.322Z,99173
2018-03-14T13:35:40.753Z,99180
2018-03-14T13:40:38.058Z,99216
2018-03-14T13:45:39.802Z,99237
2018-03-14T13:50:37.144Z,99211
2018-03-14T13:55:38.172Z,99180
2018-03-14T14:00:35.456Z,99171
2018-03-14T14:05:38.890Z,99171
2018-03-14T14:10:36.098Z,99181
2018-03-14T14:15:33.337Z,99225
2018-03-14T14:20:30.467Z,99203
2018-03-14T14:25:31.529Z,99170
2018-03-14T14:30:28.701Z,99161
2018-03-14T14:35:26.927Z,99160
2018-03-14T14:40:25.303Z,99165
2018-03-14T14:45:32.821Z,99170
2018-03-14T14:50:30.078Z,99170
2018-03-14T14:55:32.737Z,99166
2018-03-14T15:00:30.037Z,99175
2018-03-14T15:05:28.442Z,99175
2018-03-14T15:10:25.745Z,99175
2018-03-14T15:15:24.223Z,99175
2018-03-14T15:20:21.477Z,99183
2018-03-14T15:25:24.419Z,99185
2018-03-14T15:30:21.563Z,99186
2018-03-14T15:35:26.872Z,99195
2018-03-14T15:40:24.017Z,99192
2018-03-14T15:45:24.883Z,99206
2018-03-14T15:50:22.191Z,99215
2018-03-14T15:55:21.217Z,99217
2018-03-14T16:00:18.459Z,99216
2018-03-14T16:05:25.757Z,99220
2018-03-14T16:10:22.946Z,99221
2018-03-14T16:15:30.625Z,99223
2018-03-14T16:20:27.813Z,99223
2018-03-14T16:25:29.555Z,99224
2018-03-14T16:30:26.893Z,99219
2018-03-14T16:35:30.670Z,99222
2018-03-14T16:40:27.881Z,99230
2018-03-14T16:45:31.198Z,99235
2018-03-14T16:50:28.343Z,99244
2018-03-14T16:55:29.519Z,99254
2018-03-14T17:00:26.884Z,99255
2018-03-14T17:05:28.315Z,99279
2018-03-14T17:10:25.648Z,99288
2018-03-14T17:15:23.927Z,99312
2018-03-14T17:20:21.184Z,99295
2018-03-14T17:25:22.598Z,99295
2018-03-14T17:30:19.514Z,99309
2018-03-14T17:35:18.853Z,99320
2018-03-14T17:40:16.215Z,99334
2018-03-14T17:45:16.981Z,99353
2018-03-14T17:50:14.346Z,99341
2018-03-14T17:55:22.286Z,99329
2018-03-14T18:00:19.637Z,99330
2018-03-14T18:05:18.047Z,99321
2018-03-14T18:10:15.212Z,99319
2018-03-14T18:15:15.998Z,99326
2018-03-14T18:20:13.352Z,99339
2018-03-14T18:25:18.353Z,99346
2018-03-14T18:30:16.123Z,99351
2018-03-14T18:35:17.000Z,99338
2018-03-14T18:40:15.106Z,99351
2018-03-14T18:45:17.130Z,99347
2018-03-14T18:50:14.228Z,99355
2018-03-14T18:55:15.055Z,99369
2018-03-14T19:00:12.210Z,99377
2018-03-14T19:05:13.348Z,99374
2018-03-14T19:10:10.803Z,99382
2018-03-14T19:15:14.868Z,99395
2018-03-14T19:20:12.540Z,99399
2018-03-14T19:25:20.205Z,99403
2018-03-14T19:30:17.406Z,99398
2018-03-14T19:35:18.278Z,99397
2018-03-14T19:40:16.380Z,99399
2018-03-14T19:45:21.153Z,99402
2018-03-14T19:50:18.464Z,99406
2018-03-14T19:55:16.686Z,99394
2018-03-14T20:00:14.214Z,99400
2018-03-14T20:05:11.704Z,99419
2018-03-14T20:10:08.863Z,99425
2018-03-14T20:15:09.243Z,99434
2018-03-14T20:20:08.169Z,99428
2018-03-14T20:25:09.465Z,99421
2018-03-14T20:35:25.276Z,99424
2018-03-14T20:40:22.647Z,99421
2018-03-14T20:45:20.090Z,99420
2018-03-14T20:50:17.582Z,99424
2018-03-14T20:55:18.467Z,99424
2018-03-14T21:00:15.757Z,99433
2018-03-14T21:05:13.058Z,99430
2018-03-14T21:10:10.742Z,99430
2018-03-14T21:15:14.566Z,99433
2018-03-14T21:20:12.673Z,99434
2018-03-14T21:25:14.850Z,99413
2018-03-14T21:30:12.018Z,99408
2018-03-14T21:35:12.644Z,99410
2018-03-14T21:40:09.993Z,99413
2018-03-14T21:45:11.481Z,99413
2018-03-14T21:50:08.887Z,99422
2018-03-14T21:55:09.428Z,99430
2018-03-14T22:00:06.685Z,99428
2018-03-14T22:05:10.003Z,99428
2018-03-14T22:10:08.093Z,99426
2018-03-14T22:15:06.552Z,99435
2018-03-14T22:20:03.765Z,99427
2018-03-14T22:25:04.666Z,99429
2018-03-14T22:30:02.031Z,99431
2018-03-14T22:35:00.461Z,99421
2018-03-14T22:39:57.790Z,99425
2018-03-14T22:44:59.544Z,99431
2018-03-14T22:49:57.672Z,99442
2018-03-14T22:55:01.548Z,99432
2018-03-14T22:59:58.846Z,99437
2018-03-14T23:05:02.011Z,99438
2018-03-14T23:09:59.278Z,99435
2018-03-14T23:15:00.282Z,99437
2018-03-14T23:19:57.496Z,99441
2018-03-14T23:24:55.837Z,99448
2018-03-14T23:29:52.983Z,99448
2018-03-14T23:34:57.117Z,99448
2018-03-14T23:39:54.394Z,99441
2018-03-14T23:44:52.632Z,99436
2018-03-14T23:49:49.737Z,99436
2018-03-14T23:54:50.358Z,99428
2018-03-14T23:59:47.573Z,99436
